Time;durP1;ratioP1;P1;durP2;ratioP2;P2;SDS_P1;SDS_P2;PMS_P1;PMS_P2;Temp;Humidity;BMP_temperature;BMP_pressure;BME280_temperature;BME280_humidity;BME280_pressure;Samples;Min_cycle;Max_cycle;Signal;HPM_P1;HPM_P2
2022/06/10 00:01:04;;;;;;;34.85;5.65;;;15.70;99.90;;;;;;5052098;28;20632;-56
2022/06/10 00:03:31;;;;;;;40.63;5.80;;;14.60;99.90;;;;;;5051458;28;20212;-55
2022/06/10 00:06:00;;;;;;;37.35;5.75;;;14.50;99.90;;;;;;5051775;28;20181;-56
2022/06/10 00:08:30;;;;;;;38.10;5.53;;;14.50;99.90;;;;;;5051459;28;20180;-56
2022/06/10 00:10:57;;;;;;;39.22;5.72;;;14.50;99.90;;;;;;5038908;28;20256;-56
2022/06/10 00:13:27;;;;;;;32.85;6.00;;;14.50;99.90;;;;;;5050330;28;20185;-56
2022/06/10 00:15:54;;;;;;;32.53;5.65;;;14.50;99.90;;;;;;5050721;28;20264;-55
2022/06/10 00:18:22;;;;;;;29.10;5.47;;;14.60;99.90;;;;;;5051190;28;20177;-56
2022/06/10 00:20:48;;;;;;;39.20;5.45;;;14.60;99.90;;;;;;5051313;28;20178;-56
2022/06/10 00:23:14;;;;;;;43.47;6.80;;;14.50;99.90;;;;;;5070193;28;20250;-56
2022/06/10 00:25:40;;;;;;;32.47;5.75;;;14.50;99.90;;;;;;5051059;28;20184;-55
2022/06/10 00:28:07;;;;;;;36.33;5.68;;;14.80;99.90;;;;;;5051035;28;20256;-55
2022/06/10 00:30:33;;;;;;;37.13;5.45;;;14.50;99.90;;;;;;5051358;28;20177;-56
2022/06/10 00:33:00;;;;;;;36.80;5.60;;;14.50;99.90;;;;;;5051425;28;20252;-55
2022/06/10 00:35:28;;;;;;;28.70;4.68;;;14.40;99.90;;;;;;5051106;28;20247;-56
2022/06/10 00:37:54;;;;;;;40.88;4.85;;;14.60;99.90;;;;;;5051446;28;20199;-56
2022/06/10 00:40:30;;;;;;;42.33;6.10;;;14.50;99.90;;;;;;5050935;28;20176;-56
2022/06/10 00:42:56;;;;;;;42.92;5.95;;;14.50;99.90;;;;;;5050601;28;20267;-56
2022/06/10 00:45:47;;;;;;;35.75;5.53;;;14.50;99.90;;;;;;5050631;28;20177;-56
2022/06/10 00:48:17;;;;;;;33.33;6.43;;;14.60;99.90;;;;;;5050888;28;20232;-56
2022/06/10 00:50:43;;;;;;;43.83;5.72;;;14.60;99.90;;;;;;5051440;28;20177;-56
2022/06/10 00:53:14;;;;;;;40.42;5.95;;;14.70;99.90;;;;;;5050824;28;20172;-56
2022/06/10 00:55:42;;;;;;;33.03;5.15;;;14.60;99.90;;;;;;5051278;28;20200;-56
2022/06/10 00:58:41;;;;;;;47.67;7.03;;;14.70;99.90;;;;;;5051001;28;20652;-54
2022/06/10 01:01:08;;;;;;;37.70;5.10;;;14.70;99.90;;;;;;5046700;28;20285;-54
2022/06/10 01:03:35;;;;;;;32.88;6.97;;;14.70;99.90;;;;;;5050637;28;20290;-54
2022/06/10 01:06:01;;;;;;;31.58;5.22;;;14.70;99.90;;;;;;5050507;28;20643;-54
2022/06/10 01:08:27;;;;;;;41.50;5.70;;;14.60;99.90;;;;;;5050607;28;20223;-54
2022/06/10 01:11:22;;;;;;;40.25;6.75;;;14.70;99.90;;;;;;5050689;28;20176;-54
2022/06/10 01:14:12;;;;;;;45.60;5.50;;;14.70;99.90;;;;;;5041225;28;20656;-55
2022/06/10 01:17:00;;;;;;;33.13;5.93;;;14.70;99.90;;;;;;5050012;28;20177;-54
2022/06/10 01:19:34;;;;;;;30.90;5.97;;;14.70;99.90;;;;;;5032758;28;20186;-54
2022/06/10 01:22:09;;;;;;;30.42;5.88;;;14.70;99.90;;;;;;5047781;28;20172;-54
2022/06/10 01:25:13;;;;;;;37.60;5.72;;;14.60;99.90;;;;;;5049927;28;20204;-54
2022/06/10 01:27:58;;;;;;;33.83;6.10;;;14.50;99.90;;;;;;5033424;28;20719;-55
2022/06/10 01:30:48;;;;;;;35.45;6.13;;;14.60;99.90;;;;;;5050174;28;20183;-54
2022/06/10 01:33:25;;;;;;;37.47;6.53;;;14.70;99.90;;;;;;5049949;28;20640;-55
2022/06/10 01:36:04;;;;;;;40.90;5.90;;;14.60;99.90;;;;;;5030182;28;20197;-55
2022/06/10 01:38:52;;;;;;;36.95;6.35;;;14.60;99.90;;;;;;5030337;28;20176;-55
2022/06/10 01:41:37;;;;;;;37.70;6.03;;;14.60;99.90;;;;;;5032180;28;20220;-55
2022/06/10 01:44:40;;;;;;;34.30;5.40;;;14.60;99.90;;;;;;5049437;28;20239;-55
2022/06/10 01:47:15;;;;;;;46.60;5.93;;;14.60;99.90;;;;;;5053873;28;20228;-55
2022/06/10 01:49:53;;;;;;;37.95;6.28;;;14.50;99.90;;;;;;5054389;28;20575;-55
2022/06/10 01:52:57;;;;;;;41.42;5.93;;;14.70;99.90;;;;;;5034380;28;20181;-55
2022/06/10 01:55:45;;;;;;;51.72;7.05;;;14.50;99.90;;;;;;5023457;28;20519;-55
2022/06/10 01:58:20;;;;;;;42.38;6.35;;;14.50;99.90;;;;;;5054216;28;20188;-55
2022/06/10 02:00:50;;;;;;;46.67;6.53;;;14.40;99.90;;;;;;5054251;28;20167;-55
2022/06/10 02:03:40;;;;;;;47.85;5.78;;;14.30;99.90;;;;;;5053979;28;20951;-55
2022/06/10 02:06:22;;;;;;;45.42;6.90;;;14.40;99.90;;;;;;5052400;28;20639;-55
2022/06/10 02:08:57;;;;;;;40.75;6.05;;;14.30;99.90;;;;;;5053538;28;20173;-55
2022/06/10 02:11:27;;;;;;;47.47;5.97;;;14.30;99.90;;;;;;5053456;28;20173;-55
2022/06/10 02:14:00;;;;;;;49.22;5.55;;;14.30;99.90;;;;;;5053597;28;20173;-55
2022/06/10 02:16:31;;;;;;;41.85;6.88;;;14.30;99.90;;;;;;5053526;28;20170;-55
2022/06/10 02:19:01;;;;;;;47.45;6.63;;;14.20;99.90;;;;;;5050864;28;20212;-55
2022/06/10 02:21:30;;;;;;;42.05;6.82;;;14.20;99.90;;;;;;5045492;28;20205;-55
2022/06/10 02:24:10;;;;;;;38.00;5.32;;;14.20;99.90;;;;;;5053242;28;20238;-58
2022/06/10 02:26:37;;;;;;;42.28;6.65;;;14.20;99.90;;;;;;5053759;28;20184;-54
2022/06/10 02:29:08;;;;;;;36.30;6.13;;;14.20;99.90;;;;;;5053524;28;20173;-54
2022/06/10 02:31:39;;;;;;;37.13;6.32;;;14.20;99.90;;;;;;5053694;28;20161;-54
2022/06/10 02:34:06;;;;;;;36.40;6.57;;;14.10;99.90;;;;;;5053664;28;20169;-54
2022/06/10 02:36:49;;;;;;;43.17;6.78;;;13.80;99.90;;;;;;5053483;28;20705;-58
2022/06/10 02:39:41;;;;;;;38.60;6.35;;;14.00;99.90;;;;;;5053539;28;20169;-55
2022/06/10 02:42:35;;;;;;;34.30;6.50;;;14.00;99.90;;;;;;5046039;28;20184;-55
2022/06/10 02:45:38;;;;;;;37.25;6.13;;;14.00;99.90;;;;;;5053131;28;20212;-55
2022/06/10 02:48:10;;;;;;;37.47;5.53;;;13.90;99.90;;;;;;5019976;28;20275;-55
2022/06/10 02:50:36;;;;;;;52.28;7.22;;;13.90;99.90;;;;;;5033320;28;20186;-55
2022/06/10 02:53:03;;;;;;;51.60;7.03;;;13.90;99.90;;;;;;5032849;28;20189;-55
2022/06/10 02:55:30;;;;;;;42.58;7.35;;;13.80;99.90;;;;;;5033303;28;20193;-55
2022/06/10 03:01:20;;;;;;;34.53;6.40;;;13.90;99.90;;;;;;5033389;28;20188;-55
2022/06/10 03:04:06;;;;;;;46.25;6.43;;;13.80;99.90;;;;;;5015894;28;20392;-55
2022/06/10 03:06:59;;;;;;;47.47;6.68;;;13.70;99.90;;;;;;5013420;28;20179;-55
2022/06/10 03:09:44;;;;;;;33.00;5.88;;;13.70;99.90;;;;;;5013390;28;20174;-54
2022/06/10 03:12:24;;;;;;;48.78;6.43;;;13.60;99.90;;;;;;5013527;28;20195;-55
2022/06/10 03:15:14;;;;;;;39.33;6.27;;;13.60;99.90;;;;;;5024174;28;20176;-55
2022/06/10 03:17:48;;;;;;;32.45;5.28;;;13.50;99.90;;;;;;5032565;28;20215;-55
2022/06/10 03:20:21;;;;;;;38.85;6.47;;;13.40;99.90;;;;;;5032622;28;20678;-55
2022/06/10 03:22:59;;;;;;;43.50;7.13;;;13.30;99.90;;;;;;5031943;28;20178;-55
2022/06/10 03:25:36;;;;;;;43.58;6.57;;;13.40;99.90;;;;;;5031932;28;20182;-56
2022/06/10 03:28:07;;;;;;;35.50;6.15;;;13.30;99.90;;;;;;5032436;28;20652;-55
2022/06/10 03:30:46;;;;;;;39.10;6.20;;;13.20;99.90;;;;;;5032645;28;20177;-55
2022/06/10 03:33:17;;;;;;;38.15;6.95;;;13.20;99.90;;;;;;5032321;28;20177;-55
2022/06/10 03:35:51;;;;;;;41.10;6.18;;;13.10;99.90;;;;;;5032049;28;20201;-55
2022/06/10 03:38:18;;;;;;;42.53;6.57;;;13.20;99.90;;;;;;5031982;28;20166;-55
2022/06/10 03:40:56;;;;;;;41.50;6.30;;;13.10;99.90;;;;;;5032118;28;20595;-55
2022/06/10 03:43:24;;;;;;;40.77;6.23;;;13.10;99.90;;;;;;5030745;28;20209;-55
2022/06/10 03:45:57;;;;;;;46.90;6.67;;;13.10;99.90;;;;;;5031996;28;20181;-55
2022/06/10 03:48:25;;;;;;;52.75;6.82;;;12.90;99.90;;;;;;5052294;28;20181;-55
2022/06/10 03:50:51;;;;;;;41.07;7.33;;;13.10;99.90;;;;;;5052232;28;20167;-55
2022/06/10 03:53:20;;;;;;;41.67;6.37;;;13.00;99.90;;;;;;5034319;28;20170;-55
2022/06/10 03:55:46;;;;;;;37.40;7.25;;;13.10;99.90;;;;;;5051678;28;20673;-55
2022/06/10 03:58:12;;;;;;;41.10;6.53;;;12.20;99.90;;;;;;5051787;28;20173;-55
2022/06/10 04:00:39;;;;;;;35.17;6.63;;;13.10;99.90;;;;;;5051472;28;20542;-55
2022/06/10 04:03:05;;;;;;;34.43;6.60;;;13.20;99.90;;;;;;5050753;28;20725;-55
2022/06/10 04:05:31;;;;;;;34.53;5.83;;;13.30;99.90;;;;;;5051307;28;20208;-55
2022/06/10 04:07:57;;;;;;;33.70;7.20;;;13.30;99.90;;;;;;5051747;28;20218;-55
2022/06/10 04:10:25;;;;;;;45.97;7.27;;;13.30;99.90;;;;;;5051583;28;20260;-55
2022/06/10 04:12:51;;;;;;;33.38;7.25;;;13.30;99.90;;;;;;5051695;28;20616;-55
2022/06/10 04:15:18;;;;;;;38.00;6.80;;;13.30;99.90;;;;;;5050884;28;20192;-55
2022/06/10 04:17:50;;;;;;;44.83;6.57;;;13.30;99.90;;;;;;5051833;28;20177;-55
2022/06/10 04:20:21;;;;;;;36.00;6.05;;;13.50;99.90;;;;;;5051450;28;20624;-55
2022/06/10 04:22:47;;;;;;;41.40;6.60;;;13.30;99.90;;;;;;5043170;28;20178;-55
2022/06/10 04:25:12;;;;;;;37.17;6.67;;;13.40;99.90;;;;;;5046432;28;20278;-55
2022/06/10 04:27:39;;;;;;;42.63;6.43;;;13.40;99.90;;;;;;5051254;28;20227;-55
2022/06/10 04:30:07;;;;;;;42.10;6.13;;;13.40;99.90;;;;;;5033606;28;20169;-55
2022/06/10 04:32:33;;;;;;;41.88;7.13;;;13.40;99.90;;;;;;5051333;28;20177;-55
2022/06/10 04:34:59;;;;;;;34.80;6.57;;;13.40;99.90;;;;;;5051236;28;20173;-55
2022/06/10 04:37:26;;;;;;;32.77;5.80;;;13.40;99.90;;;;;;5051335;28;20181;-55
2022/06/10 04:39:52;;;;;;;39.03;7.07;;;13.50;99.90;;;;;;5051016;28;20173;-55
2022/06/10 04:42:18;;;;;;;36.60;7.10;;;13.40;99.90;;;;;;5051038;28;20161;-55
2022/06/10 04:44:43;;;;;;;40.43;6.53;;;13.40;99.90;;;;;;5053379;28;20251;-55
2022/06/10 04:47:09;;;;;;;42.20;6.43;;;13.40;99.90;;;;;;5070971;28;20248;-55
2022/06/10 04:49:39;;;;;;;39.17;6.43;;;13.40;99.90;;;;;;5053718;28;20188;-55
2022/06/10 04:52:05;;;;;;;35.83;6.63;;;9.60;99.90;;;;;;5032898;28;20173;-55
2022/06/10 04:54:31;;;;;;;37.33;6.70;;;13.50;99.90;;;;;;5050826;28;20272;-55
2022/06/10 04:56:56;;;;;;;48.35;6.38;;;13.40;99.90;;;;;;5051062;28;20252;-55
2022/06/10 04:59:22;;;;;;;39.78;6.32;;;13.50;99.90;;;;;;5050758;28;20268;-55
2022/06/10 05:01:48;;;;;;;40.92;5.82;;;13.40;99.90;;;;;;5050649;28;20173;-55
2022/06/10 05:04:14;;;;;;;38.30;6.45;;;13.40;99.90;;;;;;5050292;28;20208;-55
2022/06/10 05:06:40;;;;;;;37.05;6.80;;;13.50;99.90;;;;;;5050911;28;20663;-54
2022/06/10 05:09:06;;;;;;;37.55;6.35;;;13.40;99.90;;;;;;5050695;28;20158;-55
2022/06/10 05:11:31;;;;;;;32.35;6.03;;;13.30;99.90;;;;;;5050527;28;20181;-55
2022/06/10 05:13:57;;;;;;;42.30;6.28;;;11.40;99.90;;;;;;5050968;28;20184;-55
2022/06/10 05:16:24;;;;;;;41.17;6.55;;;13.80;99.90;;;;;;5050749;28;20181;-55
2022/06/10 05:18:50;;;;;;;42.60;7.07;;;13.70;99.90;;;;;;5050645;28;20222;-55
2022/06/10 05:21:16;;;;;;;40.20;6.18;;;13.70;99.90;;;;;;5050477;28;20173;-55
2022/06/10 05:23:45;;;;;;;35.37;5.63;;;14.10;99.90;;;;;;5050198;28;20217;-55
2022/06/10 05:26:11;;;;;;;36.42;6.32;;;13.80;99.90;;;;;;5050686;28;20651;-55
2022/06/10 05:28:37;;;;;;;44.63;6.53;;;13.80;99.90;;;;;;5050561;28;20170;-55
2022/06/10 05:31:03;;;;;;;36.57;5.80;;;13.80;99.90;;;;;;5050695;28;20173;-55
2022/06/10 05:34:44;;;;;;;33.03;6.00;;;13.80;99.90;;;;;;5050279;28;20242;-55
2022/06/10 05:36:14;;;;;;;39.40;6.10;;;14.10;99.90;;;;;;5050254;28;20181;-55
2022/06/10 05:38:40;;;;;;;38.92;5.30;;;14.00;99.90;;;;;;5050476;28;20730;-55
2022/06/10 05:43:57;;;;;;;44.40;6.07;;;14.00;99.90;;;;;;5026641;28;20217;-57
2022/06/10 05:46:23;;;;;;;39.00;6.53;;;14.10;99.90;;;;;;5050365;28;20681;-55
2022/06/10 05:48:49;;;;;;;28.88;5.55;;;14.30;99.90;;;;;;5049982;28;20188;-55
2022/06/10 05:51:14;;;;;;;41.28;6.05;;;14.10;99.90;;;;;;5048676;28;20306;-55
2022/06/10 05:53:40;;;;;;;39.20;6.53;;;14.10;99.90;;;;;;5032383;28;20533;-55
2022/06/10 05:56:06;;;;;;;46.25;6.75;;;14.20;99.90;;;;;;5050325;28;20177;-55
2022/06/10 05:58:31;;;;;;;32.85;6.18;;;14.40;99.90;;;;;;5050116;28;20519;-56
2022/06/10 06:00:57;;;;;;;32.22;6.05;;;14.40;99.90;;;;;;5050444;28;20180;-56
2022/06/10 06:03:23;;;;;;;36.30;6.47;;;14.80;99.90;;;;;;5032053;28;20606;-55
2022/06/10 06:05:50;;;;;;;41.03;6.18;;;;;;;;;;5050230;28;20200;-56
2022/06/10 06:08:16;;;;;;;36.80;5.97;;;14.60;99.90;;;;;;5049525;28;20883;-55
2022/06/10 06:10:41;;;;;;;31.85;4.85;;;14.50;99.90;;;;;;5050354;28;20636;-55
2022/06/10 06:13:07;;;;;;;35.67;4.85;;;14.80;99.90;;;;;;5049549;28;20260;-55
2022/06/10 06:15:33;;;;;;;43.17;7.40;;;;;;;;;;5048668;28;20594;-58
2022/06/10 06:17:59;;;;;;;30.35;4.90;;;14.90;99.90;;;;;;5049782;28;20643;-66
2022/06/10 06:20:24;;;;;;;40.58;5.40;;;14.90;99.90;;;;;;5049998;28;20226;-67
2022/06/10 06:22:50;;;;;;;30.92;5.68;;;14.90;99.90;;;;;;5049280;28;20169;-67
2022/06/10 06:25:17;;;;;;;31.55;5.75;;;15.00;99.90;;;;;;5049863;28;20169;-66
2022/06/10 06:27:45;;;;;;;31.70;5.18;;;15.00;99.90;;;;;;5050337;28;20690;-67
2022/06/10 06:30:15;;;;;;;30.45;5.82;;;15.00;99.90;;;;;;5052693;28;20670;-67
2022/06/10 06:32:41;;;;;;;29.67;5.55;;;15.10;99.90;;;;;;5053502;28;20664;-67
2022/06/10 06:35:07;;;;;;;43.30;6.47;;;15.20;99.90;;;;;;5053393;28;20266;-67
2022/06/10 06:37:33;;;;;;;34.80;5.78;;;15.10;99.90;;;;;;5053246;28;20188;-67
2022/06/10 06:39:59;;;;;;;42.17;6.35;;;15.30;99.90;;;;;;5054648;28;20223;-66
2022/06/10 06:42:25;;;;;;;42.72;5.38;;;15.20;99.90;;;;;;5072966;28;20636;-66
2022/06/10 06:44:50;;;;;;;36.92;5.30;;;15.20;99.90;;;;;;5041754;28;20667;-67
2022/06/10 06:47:16;;;;;;;32.80;5.05;;;15.30;99.90;;;;;;5052849;28;20217;-66
2022/06/10 06:49:42;;;;;;;26.83;5.07;;;;;;;;;;5052761;28;20184;-67
2022/06/10 06:52:08;;;;;;;31.77;5.55;;;15.40;99.90;;;;;;5053032;28;20173;-66
2022/06/10 06:54:36;;;;;;;33.00;5.32;;;15.40;99.90;;;;;;5054108;28;20236;-67
2022/06/10 06:57:02;;;;;;;29.83;5.78;;;15.40;99.90;;;;;;5068944;28;20173;-67
2022/06/10 06:59:27;;;;;;;33.95;5.50;;;15.60;99.90;;;;;;5041603;28;20189;-66
2022/06/10 07:01:53;;;;;;;36.50;6.30;;;15.80;99.90;;;;;;5052907;28;20161;-67
2022/06/10 07:04:19;;;;;;;28.67;5.22;;;15.50;99.90;;;;;;5052191;28;20204;-66
2022/06/10 07:06:45;;;;;;;29.95;5.47;;;15.60;99.90;;;;;;5052908;28;20200;-66
2022/06/10 07:09:11;;;;;;;34.78;5.75;;;15.60;99.90;;;;;;5051960;28;20543;-65
2022/06/10 07:11:38;;;;;;;33.83;5.32;;;15.70;99.90;;;;;;5072879;28;20161;-67
2022/06/10 07:14:04;;;;;;;41.45;5.57;;;15.80;99.90;;;;;;5061847;28;20231;-67
2022/06/10 07:16:30;;;;;;;28.90;4.43;;;15.80;99.90;;;;;;5052592;28;20177;-66
2022/06/10 07:18:56;;;;;;;34.47;5.07;;;;;;;;;;5062548;28;20237;-66
2022/06/10 07:21:22;;;;;;;31.42;5.43;;;16.00;99.90;;;;;;5072881;28;20173;-66
2022/06/10 07:23:48;;;;;;;26.08;4.47;;;16.00;99.90;;;;;;5056364;28;20243;-65
2022/06/10 07:26:16;;;;;;;33.97;4.88;;;16.00;99.90;;;;;;5052302;28;20173;-65
2022/06/10 07:28:41;;;;;;;33.75;5.35;;;16.60;99.90;;;;;;5069349;28;20180;-65
2022/06/10 07:31:07;;;;;;;34.38;5.28;;;16.30;99.90;;;;;;5072658;28;20165;-66
2022/06/10 07:33:37;;;;;;;34.50;4.93;;;16.40;99.90;;;;;;5042119;28;20219;-65
2022/06/10 07:36:05;;;;;;;33.05;5.30;;;16.40;99.90;;;;;;5052249;28;20173;-65
2022/06/10 07:38:31;;;;;;;34.33;5.32;;;16.50;99.90;;;;;;5052024;28;20209;-66
2022/06/10 07:43:42;;;;;;;33.17;5.15;;;16.60;99.90;;;;;;5052730;28;20261;-65
2022/06/10 07:46:12;;;;;;;37.60;5.18;;;16.70;99.90;;;;;;5066505;28;20188;-65
2022/06/10 07:48:37;;;;;;;27.83;5.30;;;16.90;99.90;;;;;;5050409;28;20603;-65
2022/06/10 07:51:03;;;;;;;37.20;6.15;;;16.90;99.90;;;;;;5060584;28;20234;-66
2022/06/10 07:53:30;;;;;;;28.67;5.95;;;17.00;99.90;;;;;;5055984;28;20628;-66
2022/06/10 07:55:56;;;;;;;36.65;5.20;;;17.00;99.90;;;;;;5034011;28;20181;-64
2022/06/10 07:58:24;;;;;;;31.02;5.68;;;17.00;99.90;;;;;;5052309;28;20897;-62
2022/06/10 08:00:51;;;;;;;28.52;4.53;;;17.10;99.90;;;;;;5050645;28;20200;-63
2022/06/10 08:03:17;;;;;;;27.90;5.22;;;17.10;99.90;;;;;;5049636;28;20524;-63
2022/06/10 08:05:43;;;;;;;26.58;4.63;;;17.10;99.90;;;;;;5051876;28;20216;-64
2022/06/10 08:08:17;;;;;;;33.08;4.80;;;17.30;99.90;;;;;;5051116;28;20169;-63
2022/06/10 08:10:43;;;;;;;31.80;4.78;;;17.20;99.90;;;;;;5051466;28;20256;-63
2022/06/10 08:13:10;;;;;;;31.15;4.57;;;17.20;99.90;;;;;;5050959;28;20667;-63
2022/06/10 08:15:36;;;;;;;25.85;4.53;;;17.30;99.90;;;;;;5050651;28;20177;-63
2022/06/10 08:18:04;;;;;;;40.72;5.45;;;17.60;99.90;;;;;;5050474;28;20195;-57
2022/06/10 08:23:24;;;;;;;35.65;5.20;;;17.50;99.90;;;;;;5050965;28;20622;-65
2022/06/10 08:25:51;;;;;;;27.17;4.97;;;17.60;99.90;;;;;;5051185;28;20223;-65
2022/06/10 08:28:17;;;;;;;29.20;5.30;;;17.80;99.90;;;;;;5051567;28;20177;-59
2022/06/10 08:30:43;;;;;;;33.85;5.30;;;18.10;99.90;;;;;;5051440;28;20223;-58
2022/06/10 08:33:09;;;;;;;36.80;5.50;;;18.10;99.90;;;;;;5051283;28;20566;-59
2022/06/10 08:35:37;;;;;;;30.63;5.55;;;18.20;99.90;;;;;;5050254;28;20243;-58
2022/06/10 08:38:06;;;;;;;27.58;5.10;;;18.00;99.90;;;;;;5050026;28;20259;-58
2022/06/10 08:40:55;;;;;;;28.10;4.82;;;18.10;99.90;;;;;;5049740;28;20189;-58
2022/06/10 08:43:52;;;;;;;27.10;4.78;;;18.00;99.90;;;;;;5050978;28;20239;-58
2022/06/10 08:46:42;;;;;;;25.25;5.10;;;18.20;99.90;;;;;;5050846;28;20260;-58
2022/06/10 08:49:35;;;;;;;20.60;4.47;;;17.80;99.90;;;;;;5050846;28;20184;-58
2022/06/10 08:52:21;;;;;;;23.55;4.88;;;17.90;99.90;;;;;;5050572;28;20636;-58
2022/06/10 08:55:19;;;;;;;31.02;5.07;;;18.50;99.90;;;;;;5051171;28;20192;-57
2022/06/10 08:57:46;;;;;;;32.60;5.18;;;18.40;99.90;;;;;;5050232;28;20177;-56
2022/06/10 09:00:17;;;;;;;28.55;5.05;;;18.60;99.90;;;;;;5050843;28;20215;-56
2022/06/10 09:03:09;;;;;;;30.48;4.93;;;18.70;99.90;;;;;;5050645;28;20662;-58
2022/06/10 09:05:47;;;;;;;27.23;4.93;;;18.50;99.90;;;;;;5045439;28;20614;-57
2022/06/10 09:08:16;;;;;;;24.65;4.22;;;18.60;99.90;;;;;;5046686;28;20193;-58
2022/06/10 09:11:09;;;;;;;20.95;3.88;;;19.00;99.90;;;;;;5050846;28;20184;-57
2022/06/10 09:13:40;;;;;;;19.98;3.70;;;19.00;99.90;;;;;;5049762;28;20176;-58
2022/06/10 09:16:19;;;;;;;25.52;4.10;;;19.20;99.90;;;;;;5050071;28;20584;-57
2022/06/10 09:19:00;;;;;;;26.90;4.25;;;19.10;99.90;;;;;;5050851;28;20251;-58
2022/06/10 09:21:42;;;;;;;21.98;4.35;;;19.10;99.90;;;;;;5030679;28;20259;-58
2022/06/10 09:24:15;;;;;;;26.80;4.88;;;19.60;99.90;;;;;;5030673;28;20647;-58
2022/06/10 09:26:46;;;;;;;17.30;3.58;;;19.70;99.90;;;;;;5030842;28;20174;-58
2022/06/10 09:29:12;;;;;;;27.42;4.88;;;20.00;99.90;;;;;;5037060;28;20310;-58
2022/06/10 09:31:40;;;;;;;21.15;3.58;;;20.00;99.90;;;;;;5050689;28;20671;-59
2022/06/10 09:34:08;;;;;;;22.33;4.18;;;20.10;99.90;;;;;;5032759;28;20272;-58
2022/06/10 09:36:42;;;;;;;22.55;4.53;;;20.20;99.90;;;;;;5050474;28;20173;-56
2022/06/10 09:42:39;;;;;;;18.27;3.55;;;20.50;99.90;;;;;;5030179;28;20251;-57
2022/06/10 09:45:16;;;;;;;16.98;4.00;;;20.40;99.90;;;;;;5028672;28;20209;-58
2022/06/10 09:47:55;;;;;;;17.77;3.75;;;20.40;99.90;;;;;;5029388;28;20300;-58
2022/06/10 09:50:24;;;;;;;19.63;3.78;;;20.60;99.90;;;;;;5030815;28;20196;-59
2022/06/10 09:52:53;;;;;;;20.35;3.13;;;19.90;99.90;;;;;;5040120;28;20185;-58
2022/06/10 09:55:31;;;;;;;23.55;3.95;;;20.10;99.90;;;;;;5049669;28;20175;-59
2022/06/10 09:57:56;;;;;;;23.17;4.43;;;20.70;99.90;;;;;;5050331;28;20184;-59
2022/06/10 10:00:31;;;;;;;22.13;3.33;;;20.60;99.90;;;;;;5049671;28;20181;-58
2022/06/10 10:03:18;;;;;;;16.58;3.28;;;21.00;99.90;;;;;;5052805;28;20196;-59
2022/06/10 10:06:12;;;;;;;19.73;3.85;;;21.10;99.90;;;;;;5053934;28;20234;-58
2022/06/10 10:08:46;;;;;;;12.52;3.33;;;20.90;99.90;;;;;;5053353;28;20186;-58
2022/06/10 10:11:43;;;;;;;20.73;3.97;;;20.60;99.90;;;;;;5056785;28;20191;-58
2022/06/10 10:14:36;;;;;;;17.77;3.97;;;20.40;99.90;;;;;;5053066;28;20585;-58
2022/06/10 10:17:50;;;;;;;15.80;3.00;;;20.70;99.90;;;;;;5053626;28;20177;-57
2022/06/10 10:20:48;;;;;;;15.90;3.33;;;20.70;99.90;;;;;;5002813;28;20658;-57
2022/06/10 10:23:35;;;;;;;24.05;3.50;;;20.70;99.90;;;;;;5053126;28;20182;-57
2022/06/10 10:26:05;;;;;;;15.88;3.10;;;21.50;99.90;;;;;;5052760;28;20265;-57
2022/06/10 10:28:34;;;;;;;16.15;3.65;;;21.10;99.90;;;;;;5033768;28;20261;-57
2022/06/10 10:31:16;;;;;;;20.42;3.38;;;20.90;99.90;;;;;;5033660;28;20332;-57
2022/06/10 10:33:43;;;;;;;13.80;2.88;;;20.60;99.90;;;;;;5038694;28;20173;-57
2022/06/10 10:36:35;;;;;;;10.95;2.63;;;20.50;99.90;;;;;;5062161;28;20180;-58
2022/06/10 10:39:14;;;;;;;13.00;2.67;;;21.60;99.90;;;;;;5066646;28;20226;-58
2022/06/10 10:41:47;;;;;;;21.02;3.88;;;21.80;99.90;;;;;;5057137;28;20238;-57
2022/06/10 10:44:27;;;;;;;17.67;3.22;;;22.40;99.90;;;;;;5052893;28;20645;-58
2022/06/10 10:47:01;;;;;;;18.27;3.28;;;22.20;99.90;;;;;;5053284;28;20225;-57
2022/06/10 10:49:34;;;;;;;16.77;3.33;;;22.70;99.90;;;;;;5052016;28;20173;-58
2022/06/10 10:52:13;;;;;;;18.42;3.65;;;22.90;99.90;;;;;;5053132;28;20173;-57
2022/06/10 10:54:43;;;;;;;17.33;3.15;;;22.90;99.90;;;;;;5061641;28;20177;-58
2022/06/10 10:57:25;;;;;;;16.85;3.28;;;22.40;99.90;;;;;;5070311;28;20622;-57
2022/06/10 11:00:17;;;;;;;18.98;3.25;;;22.50;99.90;;;;;;5073291;28;20591;-57
2022/06/10 11:02:46;;;;;;;16.35;2.92;;;22.50;99.90;;;;;;5070039;28;20184;-57
2022/06/10 11:05:37;;;;;;;13.65;3.20;;;22.10;99.90;;;;;;5058931;28;20212;-57
2022/06/10 11:08:20;;;;;;;16.20;2.92;;;22.20;99.90;;;;;;5033521;28;20277;-58
2022/06/10 11:11:00;;;;;;;15.82;2.90;;;22.40;99.90;;;;;;5033253;28;20166;-58
2022/06/10 11:13:45;;;;;;;14.52;2.90;;;22.60;99.90;;;;;;5032589;28;20181;-57
2022/06/10 11:16:18;;;;;;;13.25;2.80;;;22.80;99.90;;;;;;5033030;28;20637;-57
2022/06/10 11:18:48;;;;;;;10.70;2.67;;;22.20;99.90;;;;;;5032975;28;20170;-57
2022/06/10 11:21:14;;;;;;;15.50;2.92;;;22.10;99.90;;;;;;5031911;28;20523;-57
2022/06/10 11:23:51;;;;;;;14.13;3.17;;;22.30;99.90;;;;;;5062852;28;20211;-57
2022/06/10 11:26:20;;;;;;;13.10;2.72;;;22.10;99.90;;;;;;5055145;28;20176;-57
2022/06/10 11:28:46;;;;;;;18.17;3.25;;;22.50;99.90;;;;;;5052703;28;20195;-58
2022/06/10 11:31:31;;;;;;;14.40;3.15;;;22.80;99.90;;;;;;5052601;28;20721;-57
2022/06/10 11:33:59;;;;;;;14.90;3.10;;;23.40;99.90;;;;;;5052017;28;20173;-57
2022/06/10 11:36:45;;;;;;;14.35;2.78;;;23.10;99.90;;;;;;5052572;28;20713;-57
2022/06/10 11:39:31;;;;;;;13.32;2.85;;;22.90;99.90;;;;;;5059237;28;20259;-58
2022/06/10 11:42:24;;;;;;;18.13;2.90;;;23.20;99.90;;;;;;5072654;28;20226;-57
2022/06/10 11:45:10;;;;;;;16.77;3.58;;;23.30;99.90;;;;;;5067317;28;20208;-58
2022/06/10 11:47:52;;;;;;;11.70;2.38;;;24.00;99.90;;;;;;5072204;28;20220;-58
2022/06/10 11:50:22;;;;;;;15.00;3.40;;;23.70;99.90;;;;;;5071889;28;20581;-57
2022/06/10 11:53:06;;;;;;;15.07;2.78;;;24.50;99.90;;;;;;5068979;28;20644;-58
2022/06/10 11:55:37;;;;;;;12.77;2.95;;;23.80;99.90;;;;;;5072046;28;20176;-58
2022/06/10 12:01:16;;;;;;;9.95;2.30;;;23.10;99.90;;;;;;5071965;28;20233;-58
2022/06/10 12:03:48;;;;;;;16.42;2.97;;;23.50;99.90;;;;;;5064158;28;20235;-58
2022/06/10 12:06:18;;;;;;;12.52;2.63;;;23.60;99.90;;;;;;5051668;28;20181;-58
2022/06/10 12:08:56;;;;;;;15.15;3.05;;;24.40;99.90;;;;;;5051745;28;20173;-58
2022/06/10 12:11:40;;;;;;;9.68;2.10;;;24.30;99.90;;;;;;5031997;28;20224;-58
2022/06/10 12:14:27;;;;;;;8.95;2.13;;;23.70;99.90;;;;;;5031799;28;20637;-58
2022/06/10 12:17:22;;;;;;;11.80;2.97;;;23.00;99.90;;;;;;5031876;28;20186;-57
2022/06/10 12:19:52;;;;;;;13.02;3.10;;;22.70;99.90;;;;;;5031736;28;20166;-57
2022/06/10 12:22:19;;;;;;;19.67;3.33;;;22.90;99.90;;;;;;5030382;28;20177;-57
2022/06/10 12:24:48;;;;;;;17.15;3.45;;;22.70;99.90;;;;;;5029444;28;20296;-57
2022/06/10 12:27:23;;;;;;;13.70;3.08;;;22.60;99.90;;;;;;5030242;28;20268;-58
2022/06/10 12:30:04;;;;;;;15.55;2.83;;;22.60;99.90;;;;;;5035021;28;20226;-57
2022/06/10 12:32:43;;;;;;;16.02;3.30;;;21.80;99.90;;;;;;5051468;28;20367;-57
2022/06/10 12:35:36;;;;;;;12.68;3.13;;;21.90;99.90;;;;;;5051235;28;20188;-58
2022/06/10 12:38:24;;;;;;;15.48;3.17;;;21.80;99.90;;;;;;5049048;28;20217;-57
2022/06/10 12:41:01;;;;;;;11.18;3.03;;;21.70;99.90;;;;;;5051328;28;20185;-58
2022/06/10 12:43:32;;;;;;;13.27;3.03;;;21.70;99.90;;;;;;5051112;28;20198;-58
2022/06/10 12:46:27;;;;;;;19.27;3.33;;;21.90;99.90;;;;;;5051457;28;20177;-58
2022/06/10 12:48:54;;;;;;;16.20;3.10;;;21.90;99.90;;;;;;5043318;28;20258;-58
2022/06/10 12:51:22;;;;;;;14.95;2.97;;;23.20;99.90;;;;;;5051427;28;20181;-58
2022/06/10 12:54:03;;;;;;;18.38;2.92;;;23.30;99.90;;;;;;5051109;28;20686;-58
2022/06/10 12:56:38;;;;;;;19.48;3.22;;;24.40;99.90;;;;;;5050988;28;20207;-58
2022/06/10 12:59:06;;;;;;;17.30;3.30;;;24.30;99.90;;;;;;5054173;28;20176;-58
2022/06/10 13:01:32;;;;;;;17.60;3.20;;;23.80;99.90;;;;;;5051127;28;20263;-58
2022/06/10 13:04:22;;;;;;;16.95;3.42;;;24.60;99.90;;;;;;5050617;28;20300;-58
2022/06/10 13:06:57;;;;;;;18.63;3.78;;;24.40;99.90;;;;;;5039766;28;20635;-58
2022/06/10 13:09:25;;;;;;;18.40;3.42;;;25.00;99.90;;;;;;5050845;28;20168;-58
2022/06/10 13:11:53;;;;;;;18.83;3.78;;;25.70;99.90;;;;;;5050700;28;20219;-58
2022/06/10 13:14:34;;;;;;;20.92;3.97;;;25.20;99.90;;;;;;5050773;28;20181;-58
2022/06/10 13:17:00;;;;;;;16.63;3.22;;;;;;;;;;5050477;28;20619;-58
2022/06/10 13:19:31;;;;;;;17.45;4.10;;;26.10;99.90;;;;;;5050467;28;20173;-58
2022/06/10 13:21:59;;;;;;;18.35;4.00;;;26.10;99.90;;;;;;5050451;28;20650;-58
2022/06/10 13:24:26;;;;;;;19.25;4.10;;;26.20;99.90;;;;;;5050366;28;20308;-58
2022/06/10 13:26:53;;;;;;;15.68;4.13;;;26.50;99.90;;;;;;5050792;28;20177;-58